createdAt,value
2017-01-12T00:00:42.272Z,99.58
2017-01-12T00:01:42.258Z,99.58
2017-01-12T00:02:42.244Z,99.49
2017-01-12T00:03:42.235Z,99.49
2017-01-12T00:04:42.220Z,99.77
2017-01-12T00:05:42.208Z,99.77
2017-01-12T00:06:42.195Z,99.39
2017-01-12T00:07:42.186Z,99.39
2017-01-12T00:08:42.173Z,99.3
2017-01-12T00:09:42.160Z,99.2
2017-01-12T00:10:42.146Z,99.58
2017-01-12T00:11:42.141Z,98.92
2017-01-12T00:12:42.122Z,99.11
2017-01-12T00:13:42.110Z,99.2
2017-01-12T00:14:42.099Z,98.82
2017-01-12T00:15:42.091Z,99.11
2017-01-12T00:16:42.072Z,99.3
2017-01-12T00:17:42.061Z,99.11
2017-01-12T00:18:42.051Z,99.2
2017-01-12T00:19:42.039Z,98.54
2017-01-12T00:20:42.024Z,98.92
2017-01-12T00:21:42.012Z,99.2
2017-01-12T00:22:42.000Z,98.92
2017-01-12T00:23:41.985Z,98.82
2017-01-12T00:24:41.974Z,98.54
2017-01-12T00:25:41.962Z,98.73
2017-01-12T00:26:41.951Z,98.44
2017-01-12T00:27:41.939Z,97.88
2017-01-12T00:28:41.928Z,98.82
2017-01-12T00:29:41.915Z,98.44
2017-01-12T00:30:41.902Z,98.63
2017-01-12T00:31:41.891Z,98.35
2017-01-12T00:32:41.877Z,98.44
2017-01-12T00:33:41.865Z,98.54
2017-01-12T00:34:41.853Z,98.35
2017-01-12T00:35:41.847Z,98.82
2017-01-12T00:36:41.829Z,97.88
2017-01-12T00:37:41.819Z,97.78
2017-01-12T00:38:41.804Z,97.78
2017-01-12T00:39:41.792Z,97.88
2017-01-12T00:40:41.780Z,97.97
2017-01-12T00:41:41.770Z,97.88
2017-01-12T00:42:41.758Z,97.88
2017-01-12T00:43:41.751Z,97.97
2017-01-12T00:44:41.731Z,97.97
2017-01-12T00:45:41.720Z,98.25
2017-01-12T00:46:41.707Z,98.07
2017-01-12T00:47:41.695Z,97.78
2017-01-12T00:48:41.687Z,97.97
2017-01-12T00:49:41.671Z,98.25
2017-01-12T00:50:41.657Z,97.78
2017-01-12T00:51:41.647Z,97.97
2017-01-12T00:52:41.636Z,98.16
2017-01-12T00:53:41.621Z,97.78
2017-01-12T00:54:41.609Z,97.5
2017-01-12T00:55:41.600Z,97.12
2017-01-12T00:56:41.585Z,97.02
2017-01-12T00:57:41.578Z,97.5
2017-01-12T00:58:41.564Z,96.64
2017-01-12T00:59:41.548Z,97.12
2017-01-12T01:00:41.539Z,97.12
2017-01-12T01:01:41.526Z,97.31
2017-01-12T01:02:41.513Z,97.5
2017-01-12T01:03:41.501Z,96.83
2017-01-12T01:04:41.487Z,96.73
2017-01-12T01:05:41.476Z,96.17
2017-01-12T01:06:41.465Z,96.83
2017-01-12T01:07:41.453Z,96.73
2017-01-12T01:08:41.440Z,96.64
2017-01-12T01:09:41.429Z,96.36
2017-01-12T01:10:41.415Z,96.73
2017-01-12T01:11:41.404Z,96.83
2017-01-12T01:12:41.391Z,97.02
2017-01-12T01:13:41.380Z,96.36
2017-01-12T01:14:41.367Z,95.6
2017-01-12T01:15:41.354Z,95.6
2017-01-12T01:16:41.342Z,96.08
2017-01-12T01:17:41.330Z,96.26
2017-01-12T01:18:41.318Z,96.26
2017-01-12T01:19:41.305Z,96.08
2017-01-12T01:20:41.295Z,96.17
2017-01-12T01:21:41.284Z,96.92
2017-01-12T01:22:41.271Z,96.83
2017-01-12T01:23:41.256Z,96.17
2017-01-12T01:24:41.245Z,96.83
2017-01-12T01:25:41.234Z,96.36
2017-01-12T01:26:41.220Z,95.41
2017-01-12T01:27:41.207Z,96.17
2017-01-12T01:28:41.198Z,95.98
2017-01-12T01:29:41.184Z,95.98
2017-01-12T01:30:41.171Z,96.08
2017-01-12T01:31:41.159Z,96.17
2017-01-12T01:32:41.148Z,96.17
2017-01-12T01:33:41.135Z,96.36
2017-01-12T01:34:41.122Z,96.17
2017-01-12T01:35:41.111Z,94.93
2017-01-12T01:36:41.102Z,94.84
2017-01-12T01:37:41.085Z,95.6
2017-01-12T01:38:41.079Z,95.88
2017-01-12T01:39:41.062Z,95.41
2017-01-12T01:40:41.050Z,95.22
2017-01-12T01:41:41.039Z,95.22
2017-01-12T01:42:41.027Z,95.41
2017-01-12T01:43:41.016Z,95.5
2017-01-12T01:44:41.003Z,95.6
2017-01-12T01:45:40.992Z,95.41
2017-01-12T01:46:40.978Z,95.88
2017-01-12T01:47:40.968Z,96.45
2017-01-12T01:48:40.955Z,95.79
2017-01-12T01:49:40.955Z,95.69
2017-01-12T01:50:40.932Z,95.79
2017-01-12T01:51:40.920Z,95.98
2017-01-12T01:52:40.909Z,96.08
2017-01-12T01:53:40.897Z,95.69
2017-01-12T01:54:40.885Z,96.36
2017-01-12T01:55:40.873Z,95.79
2017-01-12T01:56:40.859Z,96.26
2017-01-12T01:57:40.850Z,96.08
2017-01-12T01:58:40.837Z,96.17
2017-01-12T01:59:40.823Z,96.17
2017-01-12T02:00:40.812Z,96.26
2017-01-12T02:01:40.802Z,95.6
2017-01-12T02:02:40.788Z,95.69
2017-01-12T02:03:40.777Z,95.5
2017-01-12T02:04:40.768Z,95.69
2017-01-12T02:05:40.753Z,95.41
2017-01-12T02:06:40.741Z,94.84
2017-01-12T02:07:40.729Z,95.03
2017-01-12T02:08:40.719Z,95.12
2017-01-12T02:09:40.706Z,95.03
2017-01-12T02:10:40.696Z,94.18
2017-01-12T02:11:40.682Z,94.27
2017-01-12T02:12:40.670Z,94.56
2017-01-12T02:13:40.659Z,94.84
2017-01-12T02:14:40.645Z,95.03
2017-01-12T02:15:40.634Z,94.84
2017-01-12T02:16:40.623Z,95.12
2017-01-12T02:17:40.611Z,95.5
2017-01-12T02:18:40.598Z,95.03
2017-01-12T02:19:40.587Z,95.22
2017-01-12T02:20:40.575Z,95.5
2017-01-12T02:21:40.564Z,94.93
2017-01-12T02:22:40.558Z,95.22
2017-01-12T02:23:40.540Z,95.6
2017-01-12T02:24:40.528Z,95.03
2017-01-12T02:25:40.513Z,95.22
2017-01-12T02:26:40.503Z,94.74
2017-01-12T02:27:40.491Z,94.93
2017-01-12T02:28:40.480Z,94.27
2017-01-12T02:29:40.471Z,94.93
2017-01-12T02:30:40.456Z,94.27
2017-01-12T02:31:40.445Z,94.37
2017-01-12T02:32:40.431Z,94.56
2017-01-12T02:33:40.421Z,94.93
2017-01-12T02:34:40.407Z,95.31
2017-01-12T02:35:40.395Z,93.7
2017-01-12T02:36:40.381Z,93.23
2017-01-12T02:37:40.372Z,93.04
2017-01-12T02:38:40.360Z,93.61
2017-01-12T02:39:40.346Z,93.13
2017-01-12T02:40:40.335Z,93.23
2017-01-12T02:41:40.323Z,93.32
2017-01-12T02:42:40.311Z,93.23
2017-01-12T02:43:40.299Z,93.7
2017-01-12T02:44:40.291Z,91.99
2017-01-12T02:45:40.275Z,92.66
2017-01-12T02:46:40.266Z,93.23
2017-01-12T02:47:40.252Z,92.94
2017-01-12T02:48:40.241Z,93.61
2017-01-12T02:49:40.227Z,93.65
2017-01-12T02:50:40.217Z,94.42
2017-01-12T02:51:40.202Z,94.51
2017-01-12T02:52:40.575Z,93.37
2017-01-12T02:53:40.196Z,93.65
2017-01-12T02:54:40.165Z,93.75
2017-01-12T02:55:40.154Z,93.99
2017-01-12T02:56:40.144Z,94.13
2017-01-12T02:57:40.129Z,94.7
2017-01-12T02:58:40.117Z,94.37
2017-01-12T02:59:40.105Z,94.46
2017-01-12T03:00:40.094Z,93.84
2017-01-12T03:01:40.080Z,93.61
2017-01-12T03:02:40.069Z,93.13
2017-01-12T03:03:40.057Z,92.66
2017-01-12T03:04:40.046Z,93.27
2017-01-12T03:05:40.031Z,92.66
2017-01-12T03:06:40.023Z,92.76
2017-01-12T03:07:40.007Z,93.32
2017-01-12T03:08:40.002Z,93.04
2017-01-12T03:09:39.982Z,92.85
2017-01-12T03:10:39.971Z,93.41
2017-01-12T03:11:39.989Z,93.13
2017-01-12T03:12:39.946Z,93.23
2017-01-12T03:13:39.933Z,93.13
2017-01-12T03:14:39.922Z,93.04
2017-01-12T03:15:39.913Z,93.04
2017-01-12T03:16:39.898Z,93.32
2017-01-12T03:17:39.886Z,93.32
2017-01-12T03:18:39.873Z,93.32
2017-01-12T03:19:39.860Z,92.85
2017-01-12T03:20:39.848Z,92.28
2017-01-12T03:21:39.836Z,91.8
2017-01-12T03:22:39.828Z,92.28
2017-01-12T03:23:39.812Z,92.38
2017-01-12T03:24:39.806Z,91.42
2017-01-12T03:25:39.789Z,91.61
2017-01-12T03:26:39.775Z,92.28
2017-01-12T03:27:39.763Z,91.8
2017-01-12T03:28:39.751Z,92.18
2017-01-12T03:29:39.741Z,92.47
2017-01-12T03:30:39.727Z,92.18
2017-01-12T03:31:39.714Z,92.38
2017-01-12T03:32:39.703Z,92.38
2017-01-12T03:33:39.691Z,91.71
2017-01-12T03:34:39.678Z,91.24
2017-01-12T03:35:39.668Z,90.95
2017-01-12T03:36:39.658Z,90.67
2017-01-12T03:37:39.640Z,90.86
2017-01-12T03:38:39.630Z,91.24
2017-01-12T03:39:39.617Z,91.05
2017-01-12T03:40:39.606Z,90.57
2017-01-12T03:41:39.591Z,89.91
2017-01-12T03:42:39.582Z,90.43
2017-01-12T03:43:39.568Z,90.95
2017-01-12T03:44:39.557Z,90.19
2017-01-12T03:45:39.545Z,90.34
2017-01-12T03:46:39.534Z,90.05
2017-01-12T03:47:39.520Z,90.53
2017-01-12T03:48:39.507Z,90.34
2017-01-12T03:49:39.496Z,91.09
2017-01-12T03:50:39.482Z,91.38
2017-01-12T03:51:39.470Z,90.43
2017-01-12T03:52:39.458Z,90.81
2017-01-12T03:53:39.445Z,90.62
2017-01-12T03:54:39.434Z,90.53
2017-01-12T03:55:39.420Z,89.96
2017-01-12T03:56:39.410Z,90.15
2017-01-12T03:57:39.395Z,89.2
2017-01-12T03:58:39.387Z,89.86
2017-01-12T03:59:39.373Z,89.39
2017-01-12T04:00:39.359Z,89.01
2017-01-12T04:01:39.348Z,89.11
2017-01-12T04:02:39.335Z,89.48
2017-01-12T04:03:39.323Z,89.67
2017-01-12T04:04:39.311Z,89.77
2017-01-12T04:05:39.298Z,89.01
2017-01-12T04:06:39.284Z,89.2
2017-01-12T04:07:39.275Z,90.15
2017-01-12T04:08:39.260Z,90.72
2017-01-12T04:09:39.250Z,91.19
2017-01-12T04:10:39.235Z,91.09
2017-01-12T04:11:39.224Z,90.34
2017-01-12T04:12:39.212Z,90.43
2017-01-12T04:13:39.200Z,90.62
2017-01-12T04:14:39.580Z,90.81
2017-01-12T04:15:39.176Z,90.91
2017-01-12T04:16:39.162Z,90.15
2017-01-12T04:17:39.178Z,90.43
2017-01-12T04:18:39.138Z,90.91
2017-01-12T04:19:39.126Z,91.19
2017-01-12T04:20:39.119Z,91.28
2017-01-12T04:21:39.101Z,91.28
2017-01-12T04:22:39.089Z,91.66
2017-01-12T04:23:39.097Z,91.19
2017-01-12T04:24:39.066Z,90.72
2017-01-12T04:25:39.051Z,91.28
2017-01-12T04:26:39.039Z,90.62
2017-01-12T04:27:39.028Z,91.66
2017-01-12T04:28:39.017Z,91.76
2017-01-12T04:29:39.002Z,91.28
2017-01-12T04:30:38.992Z,90.72
2017-01-12T04:31:38.978Z,90.34
2017-01-12T04:32:38.967Z,91.19
2017-01-12T04:33:38.953Z,91.19
2017-01-12T04:34:38.943Z,91.09
2017-01-12T04:35:38.930Z,90.67
2017-01-12T04:36:38.917Z,89.53
2017-01-12T04:37:38.902Z,89.11
2017-01-12T04:38:38.893Z,89.58
2017-01-12T04:39:38.878Z,89.96
2017-01-12T04:40:38.869Z,89.01
2017-01-12T04:41:38.855Z,89.77
2017-01-12T04:42:38.845Z,89.96
2017-01-12T04:43:38.829Z,89.58
2017-01-12T04:44:38.818Z,89.96
2017-01-12T04:45:38.804Z,90.34
2017-01-12T04:46:38.792Z,90.34
2017-01-12T04:47:38.780Z,90.43
2017-01-12T04:48:38.769Z,90.62
2017-01-12T04:49:38.756Z,90.72
2017-01-12T04:50:38.741Z,90.43
2017-01-12T04:51:38.735Z,90.53
2017-01-12T04:52:38.719Z,90.62
2017-01-12T04:53:38.705Z,89.96
2017-01-12T04:54:38.690Z,90.34
2017-01-12T04:55:38.680Z,90.62
2017-01-12T04:56:38.669Z,91.28
2017-01-12T04:57:38.655Z,90.72
2017-01-12T04:58:38.645Z,91
2017-01-12T04:59:38.632Z,90.72
2017-01-12T05:00:38.623Z,90.53
2017-01-12T05:01:38.607Z,90.34
2017-01-12T05:02:38.594Z,89.96
2017-01-12T05:03:38.583Z,90.05
2017-01-12T05:04:38.569Z,90.34
2017-01-12T05:05:38.557Z,91.28
2017-01-12T05:06:38.547Z,91
2017-01-12T05:07:38.532Z,91.19
2017-01-12T05:08:38.518Z,91.24
2017-01-12T05:09:38.511Z,91.28
2017-01-12T05:10:38.495Z,91.19
2017-01-12T05:11:38.482Z,91.38
2017-01-12T05:12:38.470Z,91.33
2017-01-12T05:13:38.460Z,91.33
2017-01-12T05:14:38.447Z,91.33
2017-01-12T05:15:38.433Z,90.95
2017-01-12T05:16:38.420Z,91.05
2017-01-12T05:17:38.408Z,91
2017-01-12T05:18:38.396Z,90.48
2017-01-12T05:19:38.382Z,91.09
2017-01-12T05:20:38.372Z,91.66
2017-01-12T05:21:38.360Z,91.66
2017-01-12T05:22:38.347Z,92.33
2017-01-12T05:23:38.334Z,91.66
2017-01-12T05:24:38.323Z,91.57
2017-01-12T05:25:38.312Z,91.71
2017-01-12T05:26:38.298Z,90.86
2017-01-12T05:27:38.284Z,90.15
2017-01-12T05:28:38.275Z,90.53
2017-01-12T05:29:38.261Z,90.53
2017-01-12T05:30:38.247Z,90.62
2017-01-12T05:31:38.237Z,90.62
2017-01-12T05:32:38.224Z,91.09
2017-01-12T05:33:38.213Z,91.28
2017-01-12T05:34:38.197Z,91.76
2017-01-12T05:35:38.185Z,90.62
2017-01-12T05:36:38.173Z,91.76
2017-01-12T05:37:38.164Z,91.57
2017-01-12T05:38:38.149Z,91.76
2017-01-12T05:39:38.137Z,91.19
2017-01-12T05:40:38.125Z,91.19
2017-01-12T05:41:38.112Z,91.09
2017-01-12T05:42:38.099Z,91.19
2017-01-12T05:43:38.089Z,91.57
2017-01-12T05:44:38.076Z,91.66
2017-01-12T05:45:38.063Z,90.62
2017-01-12T05:46:38.050Z,91.28
2017-01-12T05:47:38.038Z,91.09
2017-01-12T05:48:38.026Z,91
2017-01-12T05:49:38.012Z,91.28
2017-01-12T05:50:38.001Z,91.09
2017-01-12T05:51:37.990Z,90.81
2017-01-12T05:52:37.977Z,91.57
2017-01-12T05:53:37.963Z,91.66
2017-01-12T05:54:37.979Z,91.66
2017-01-12T05:55:37.941Z,91.66
2017-01-12T05:56:37.926Z,91.66
2017-01-12T05:57:37.913Z,91.71
2017-01-12T05:58:37.902Z,91.38
2017-01-12T05:59:37.889Z,91.47
2017-01-12T06:00:37.874Z,90.91
2017-01-12T06:01:37.865Z,91.28
2017-01-12T06:02:37.858Z,91.09
2017-01-12T06:03:37.838Z,90.72
2017-01-12T06:04:37.826Z,90.05
2017-01-12T06:05:37.814Z,90.43
2017-01-12T06:06:37.802Z,90.05
2017-01-12T06:07:37.789Z,90.15
2017-01-12T06:08:37.780Z,90.05
2017-01-12T06:09:37.764Z,89.77
2017-01-12T06:10:37.753Z,89.48
2017-01-12T06:11:37.740Z,89.2
2017-01-12T06:12:37.727Z,90.05
2017-01-12T06:13:37.717Z,89.96
2017-01-12T06:14:38.089Z,90.05
2017-01-12T06:15:37.690Z,90.24
2017-01-12T06:16:37.682Z,89.77
2017-01-12T06:17:37.665Z,89.86
2017-01-12T06:18:37.653Z,89.96
2017-01-12T06:19:37.642Z,89.2
2017-01-12T06:20:37.628Z,89.01
2017-01-12T06:21:37.616Z,88.92
2017-01-12T06:22:37.608Z,89.77
2017-01-12T06:23:37.592Z,89.96
2017-01-12T06:24:37.579Z,89.96
2017-01-12T06:25:37.567Z,89.86
2017-01-12T06:26:37.555Z,90.24
2017-01-12T06:27:37.542Z,90.15
2017-01-12T06:28:37.529Z,90.53
2017-01-12T06:29:37.516Z,90.43
2017-01-12T06:30:37.505Z,90.43
2017-01-12T06:31:37.491Z,90.91
2017-01-12T06:32:37.480Z,91.28
2017-01-12T06:33:37.465Z,91.14
2017-01-12T06:34:37.458Z,91.24
2017-01-12T06:35:37.442Z,91.62
2017-01-12T06:36:37.429Z,91.62
2017-01-12T06:37:37.417Z,92.38
2017-01-12T06:38:37.409Z,92.38
2017-01-12T06:39:37.427Z,92.38
2017-01-12T06:40:37.377Z,92.28
2017-01-12T06:41:37.366Z,91.71
2017-01-12T06:42:37.355Z,92.28
2017-01-12T06:43:37.340Z,91.81
2017-01-12T06:44:37.327Z,91.71
2017-01-12T06:45:37.699Z,91.05
2017-01-12T06:46:37.305Z,91.71
2017-01-12T06:47:37.286Z,91.81
2017-01-12T06:48:37.274Z,91.43
2017-01-12T06:49:37.261Z,91.05
2017-01-12T06:50:37.251Z,91.62
2017-01-12T06:51:37.235Z,91.62
2017-01-12T06:52:37.221Z,92.19
2017-01-12T06:53:37.209Z,92.47
2017-01-12T06:54:37.195Z,91.71
2017-01-12T06:55:37.182Z,92.76
2017-01-12T06:56:37.168Z,91.9
2017-01-12T06:57:37.157Z,92.66
2017-01-12T06:58:37.140Z,92.66
2017-01-12T06:59:37.130Z,93.13
2017-01-12T07:00:37.119Z,93.04
2017-01-12T07:01:37.103Z,92.94
2017-01-12T07:02:37.092Z,93.32
2017-01-12T07:03:37.076Z,93.42
2017-01-12T07:04:37.064Z,93.61
2017-01-12T07:05:37.048Z,93.51
2017-01-12T07:06:37.036Z,93.32
2017-01-12T07:07:37.026Z,93.61
2017-01-12T07:08:37.010Z,93.89
2017-01-12T07:09:36.995Z,93.8
2017-01-12T07:10:36.985Z,93.51
2017-01-12T07:11:36.970Z,93.89
2017-01-12T07:12:36.955Z,94.27
2017-01-12T07:13:36.943Z,93.99
2017-01-12T07:14:36.929Z,93.89
2017-01-12T07:15:36.918Z,93.13
2017-01-12T07:16:36.901Z,93.13
2017-01-12T07:17:36.890Z,92.85
2017-01-12T07:18:36.876Z,93.23
2017-01-12T07:19:36.864Z,92.85
2017-01-12T07:20:36.875Z,93.51
2017-01-12T07:21:36.836Z,93.51
2017-01-12T07:22:36.826Z,92.76
2017-01-12T07:23:36.814Z,92.94
2017-01-12T07:24:36.798Z,92.94
2017-01-12T07:25:36.785Z,93.13
2017-01-12T07:26:36.773Z,93.04
2017-01-12T07:27:36.761Z,93.32
2017-01-12T07:28:36.745Z,93.32
2017-01-12T07:29:36.732Z,92.85
2017-01-12T07:30:36.720Z,92.57
2017-01-12T07:31:36.710Z,92.42
2017-01-12T07:32:36.693Z,92.42
2017-01-12T07:33:36.682Z,92.04
2017-01-12T07:34:36.674Z,92.33
2017-01-12T07:35:36.654Z,92.42
2017-01-12T07:36:36.642Z,92.23
2017-01-12T07:37:36.631Z,92.14
2017-01-12T07:38:36.620Z,91.66
2017-01-12T07:39:36.604Z,91.85
2017-01-12T07:40:36.592Z,92.14
2017-01-12T07:41:36.579Z,91.85
2017-01-12T07:42:36.567Z,91.95
2017-01-12T07:43:36.560Z,91.57
2017-01-12T07:44:36.540Z,91.19
2017-01-12T07:45:36.532Z,91.28
2017-01-12T07:46:36.518Z,91.38
2017-01-12T07:47:36.503Z,91.19
2017-01-12T07:48:36.492Z,90.72
2017-01-12T07:49:36.480Z,89.96
2017-01-12T07:50:36.467Z,91.09
2017-01-12T07:51:36.454Z,90.81
2017-01-12T07:52:36.444Z,91.28
2017-01-12T07:53:36.432Z,90.43
2017-01-12T07:54:36.418Z,90.05
2017-01-12T07:55:36.408Z,88.73
2017-01-12T07:56:36.394Z,89.06
2017-01-12T07:57:36.381Z,89.43
2017-01-12T07:58:36.370Z,89.81
2017-01-12T07:59:36.358Z,90.24
2017-01-12T08:00:36.347Z,89.81
2017-01-12T08:01:36.334Z,90
2017-01-12T08:02:36.324Z,89.53
2017-01-12T08:03:36.308Z,89.81
2017-01-12T08:04:36.295Z,90
2017-01-12T08:05:36.671Z,91.05
2017-01-12T08:06:36.277Z,90.57
2017-01-12T08:07:36.262Z,89.53
2017-01-12T08:08:36.250Z,89.62
2017-01-12T08:09:36.240Z,89.72
2017-01-12T08:10:36.225Z,89.06
2017-01-12T08:11:36.220Z,88.77
2017-01-12T08:12:36.203Z,89.06
2017-01-12T08:13:36.195Z,88.58
2017-01-12T08:14:36.176Z,89.25
2017-01-12T08:15:36.166Z,89.15
2017-01-12T08:16:36.153Z,88.87
2017-01-12T08:17:36.143Z,89.06
2017-01-12T08:18:36.131Z,88.87
2017-01-12T08:19:36.116Z,88.29
2017-01-12T08:20:36.105Z,88.2
2017-01-12T08:21:36.094Z,88.48
2017-01-12T08:22:36.080Z,88.39
2017-01-12T08:23:36.069Z,87.54
2017-01-12T08:24:36.062Z,88.01
2017-01-12T08:25:36.045Z,88.48
2017-01-12T08:26:36.036Z,88.2
2017-01-12T08:27:36.023Z,88.81
2017-01-12T08:28:36.011Z,88.43
2017-01-12T08:29:35.998Z,88.72
2017-01-12T08:30:35.987Z,86.82
2017-01-12T08:31:35.989Z,86.54
2017-01-12T08:32:35.967Z,87.39
2017-01-12T08:33:35.954Z,87.68
2017-01-12T08:34:35.992Z,87.77
2017-01-12T08:35:35.929Z,87.96
2017-01-12T08:36:35.918Z,87.58
2017-01-12T08:37:35.908Z,87.49
2017-01-12T08:38:35.899Z,87.39
2017-01-12T08:39:35.885Z,87.77
2017-01-12T08:40:35.874Z,88.06
2017-01-12T08:41:35.862Z,86.07
2017-01-12T08:42:35.850Z,85.49
2017-01-12T08:43:35.841Z,86.25
2017-01-12T08:44:35.828Z,87.2
2017-01-12T08:45:36.204Z,86.82
2017-01-12T08:46:35.806Z,86.07
2017-01-12T08:47:35.797Z,85.21
2017-01-12T08:48:35.782Z,85.78
2017-01-12T08:49:35.776Z,86.07
2017-01-12T08:50:35.760Z,85.02
2017-01-12T08:51:35.750Z,85.21
2017-01-12T08:52:35.737Z,85.87
2017-01-12T08:53:35.729Z,86.25
2017-01-12T08:54:35.719Z,86.44
2017-01-12T08:55:35.708Z,86.44
2017-01-12T08:56:35.693Z,86.54
2017-01-12T08:57:35.685Z,85.68
2017-01-12T08:58:35.673Z,86.07
2017-01-12T08:59:35.660Z,86.35
2017-01-12T09:00:35.649Z,87.11
2017-01-12T09:01:35.645Z,86.87
2017-01-12T09:02:35.633Z,86.39
2017-01-12T09:03:35.617Z,84.68
2017-01-12T09:04:35.608Z,85.25
2017-01-12T09:05:35.596Z,86.11
2017-01-12T09:06:35.584Z,85.16
2017-01-12T09:07:35.574Z,84.68
2017-01-12T09:08:35.564Z,84.78
2017-01-12T09:09:35.552Z,85.06
2017-01-12T09:10:35.543Z,86.01
2017-01-12T09:11:35.534Z,86.49
2017-01-12T09:12:35.520Z,86.39
2017-01-12T09:13:35.510Z,85.44
2017-01-12T09:14:35.498Z,85.53
2017-01-12T09:15:35.489Z,85.63
2017-01-12T09:16:35.480Z,84.49
2017-01-12T09:17:35.467Z,84.3
2017-01-12T09:18:35.455Z,84.68
2017-01-12T09:19:35.449Z,84.97
2017-01-12T09:20:35.435Z,84.21
2017-01-12T09:21:35.423Z,84.3
2017-01-12T09:22:35.417Z,84.4
2017-01-12T09:23:35.405Z,84.97
2017-01-12T09:24:35.398Z,85.16
2017-01-12T09:25:35.380Z,85.35
2017-01-12T09:26:35.371Z,84.97
2017-01-12T09:27:35.364Z,85.16
2017-01-12T09:28:35.351Z,85.53
2017-01-12T09:29:35.338Z,85.91
2017-01-12T09:30:35.329Z,85.25
2017-01-12T09:31:35.322Z,85.53
2017-01-12T09:32:35.310Z,85.63
2017-01-12T09:33:35.296Z,85.06
2017-01-12T09:34:35.289Z,84.97
2017-01-12T09:35:35.279Z,84.49
2017-01-12T09:36:35.269Z,84.3
2017-01-12T09:37:35.255Z,84.01
2017-01-12T09:38:35.248Z,82.78
2017-01-12T09:39:35.234Z,82.31
2017-01-12T09:40:35.225Z,82.88
2017-01-12T09:41:35.215Z,83.16
2017-01-12T09:42:35.204Z,83.64
2017-01-12T09:43:35.192Z,82.4
2017-01-12T09:44:35.190Z,82.97
2017-01-12T09:45:35.175Z,82.69
2017-01-12T09:46:35.161Z,82.78
2017-01-12T09:47:35.154Z,82.97
2017-01-12T09:48:35.141Z,82.59
2017-01-12T09:49:35.131Z,83.64
2017-01-12T09:50:35.120Z,83.36
2017-01-12T09:51:35.109Z,84.01
2017-01-12T09:52:35.103Z,84.21
2017-01-12T09:53:35.090Z,84.4
2017-01-12T09:54:35.087Z,84.21
2017-01-12T09:55:35.069Z,84.4
2017-01-12T09:56:35.061Z,84.21
2017-01-12T09:57:35.047Z,84.3
2017-01-12T09:58:35.036Z,83.45
2017-01-12T09:59:35.029Z,81.07
2017-01-12T10:00:35.020Z,81.65
2017-01-12T10:01:35.009Z,82.12
2017-01-12T10:02:34.995Z,82.69
2017-01-12T10:03:34.984Z,82.31
2017-01-12T10:04:34.975Z,82.59
2017-01-12T10:05:34.965Z,83.73
2017-01-12T10:06:34.955Z,81.07
2017-01-12T10:07:34.975Z,81.36
2017-01-12T10:08:34.934Z,82.69
2017-01-12T10:09:34.923Z,83.54
2017-01-12T10:10:34.918Z,82.78
2017-01-12T10:11:34.900Z,82.69
2017-01-12T10:12:34.895Z,83.26
2017-01-12T10:13:34.880Z,83.92
2017-01-12T10:14:34.869Z,84.59
2017-01-12T10:15:34.857Z,84.3
2017-01-12T10:16:34.850Z,84.4
2017-01-12T10:17:34.845Z,83.64
2017-01-12T10:18:34.828Z,83.36
2017-01-12T10:19:34.815Z,83.64
2017-01-12T10:20:34.805Z,83.45
2017-01-12T10:21:34.800Z,84.11
2017-01-12T10:22:34.787Z,85.44
2017-01-12T10:23:35.160Z,85.16
2017-01-12T10:24:34.762Z,85.06
2017-01-12T10:25:34.752Z,84.59
2017-01-12T10:26:34.740Z,84.01
2017-01-12T10:27:34.735Z,84.49
2017-01-12T10:28:34.721Z,84.25
2017-01-12T10:29:34.711Z,84.82
2017-01-12T10:30:34.698Z,82.54
2017-01-12T10:31:34.690Z,81.84
2017-01-12T10:32:34.678Z,81.17
2017-01-12T10:33:34.670Z,81.17
2017-01-12T10:34:34.656Z,80.51
2017-01-12T10:35:34.647Z,79.55
2017-01-12T10:36:34.637Z,81.17
2017-01-12T10:37:34.623Z,82.5
2017-01-12T10:38:34.615Z,82.78
2017-01-12T10:39:34.605Z,82.4
2017-01-12T10:40:34.594Z,83.73
2017-01-12T10:41:34.588Z,84.21
2017-01-12T10:42:34.573Z,85.16
2017-01-12T10:43:34.563Z,85.53
2017-01-12T10:44:34.553Z,85.35
2017-01-12T10:45:34.539Z,85.63
2017-01-12T10:46:34.531Z,86.01
2017-01-12T10:47:34.521Z,86.87
2017-01-12T10:48:34.513Z,86.68
2017-01-12T10:49:34.499Z,86.77
2017-01-12T10:50:34.490Z,85.06
2017-01-12T10:51:34.480Z,84.4
2017-01-12T10:52:34.468Z,84.78
2017-01-12T10:53:34.461Z,86.11
2017-01-12T10:54:34.447Z,86.96
2017-01-12T10:55:34.437Z,87.24
2017-01-12T10:56:34.425Z,88.39
2017-01-12T10:57:34.416Z,88.57
2017-01-12T10:58:34.404Z,87.82
2017-01-12T10:59:34.392Z,88.39
2017-01-12T11:00:34.384Z,88.39
2017-01-12T11:01:34.371Z,88.57
2017-01-12T11:02:34.362Z,87.82
2017-01-12T11:03:34.348Z,87.15
2017-01-12T11:04:34.339Z,87.62
2017-01-12T11:05:34.327Z,87.72
2017-01-12T11:06:34.319Z,88.67
2017-01-12T11:07:34.309Z,88.76
2017-01-12T11:08:34.297Z,88.76
2017-01-12T11:09:34.287Z,88.76
2017-01-12T11:10:34.272Z,88.48
2017-01-12T11:11:34.264Z,88.67
2017-01-12T11:12:34.257Z,88.39
2017-01-12T11:13:34.244Z,88.62
2017-01-12T11:14:34.233Z,88.76
2017-01-12T11:15:34.221Z,88.9
2017-01-12T11:16:34.212Z,89.38
2017-01-12T11:17:34.201Z,88.71
2017-01-12T11:18:34.193Z,87.38
2017-01-12T11:19:34.180Z,87.01
2017-01-12T11:20:34.172Z,87.01
2017-01-12T11:21:34.159Z,85.86
2017-01-12T11:22:34.148Z,85.58
2017-01-12T11:23:34.140Z,85.3
2017-01-12T11:24:34.131Z,85.68
2017-01-12T11:25:34.118Z,85.58
2017-01-12T11:26:34.110Z,85.77
2017-01-12T11:27:34.102Z,84.72
2017-01-12T11:28:34.088Z,84.34
2017-01-12T11:29:34.082Z,84.44
2017-01-12T11:30:34.068Z,84.16
2017-01-12T11:31:34.059Z,84.1
2017-01-12T11:32:34.051Z,84.2
2017-01-12T11:33:34.039Z,85.05
2017-01-12T11:34:34.033Z,85.34
2017-01-12T11:35:34.022Z,85.24
2017-01-12T11:36:34.010Z,84.39
2017-01-12T11:37:34.387Z,83.53
2017-01-12T11:38:33.992Z,83.15
2017-01-12T11:39:33.980Z,82.58
2017-01-12T11:40:33.971Z,82.62
2017-01-12T11:41:33.962Z,82.1
2017-01-12T11:42:33.955Z,81.67
2017-01-12T11:43:33.949Z,81.96
2017-01-12T11:44:33.935Z,81.48
2017-01-12T11:45:33.925Z,81.1
2017-01-12T11:46:33.915Z,81.38
2017-01-12T11:47:33.905Z,80.24
2017-01-12T11:48:33.901Z,80.91
2017-01-12T11:49:33.889Z,80.72
2017-01-12T11:50:33.878Z,80.63
2017-01-12T11:51:33.868Z,80.05
2017-01-12T11:52:33.861Z,79.86
2017-01-12T11:53:33.855Z,80.44
2017-01-12T11:54:33.839Z,81.38
2017-01-12T11:55:33.831Z,81.1
2017-01-12T11:56:33.823Z,78.91
2017-01-12T11:57:33.812Z,77.11
2017-01-12T11:58:33.808Z,76.92
2017-01-12T11:59:33.794Z,76.5
2017-01-12T12:00:33.786Z,76.03
2017-01-12T12:01:33.775Z,76.69
2017-01-12T12:02:33.764Z,75.55
2017-01-12T12:03:33.758Z,76.88
2017-01-12T12:04:34.133Z,78.02
2017-01-12T12:05:33.738Z,76.88
2017-01-12T12:06:33.729Z,77.26
2017-01-12T12:07:33.719Z,78.69
2017-01-12T12:08:33.710Z,79.25
2017-01-12T12:09:33.700Z,80.11
2017-01-12T12:10:33.690Z,80.21
2017-01-12T12:11:33.681Z,79.92
2017-01-12T12:12:33.673Z,78.97
2017-01-12T12:13:33.662Z,78.02
2017-01-12T12:14:33.653Z,78.3
2017-01-12T12:15:33.745Z,79.06
2017-01-12T12:16:33.634Z,80.11
2017-01-12T12:17:33.625Z,80.3
2017-01-12T12:18:33.616Z,80.05
2017-01-12T12:19:33.609Z,79.16
2017-01-12T12:20:33.597Z,78.11
2017-01-12T12:21:33.587Z,78.25
2017-01-12T12:22:33.584Z,78.11
2017-01-12T12:23:33.570Z,78.53
2017-01-12T12:24:33.559Z,77.83
2017-01-12T12:25:33.552Z,78.02
2017-01-12T12:26:33.543Z,78.78
2017-01-12T12:27:33.531Z,78.11
2017-01-12T12:28:33.524Z,77.07
2017-01-12T12:29:33.513Z,76.59
2017-01-12T12:30:33.504Z,76.59
2017-01-12T12:31:33.499Z,78.3
2017-01-12T12:32:33.487Z,77.55
2017-01-12T12:33:33.477Z,77.45
2017-01-12T12:34:33.466Z,78.11
2017-01-12T12:35:33.462Z,76.4
2017-01-12T12:36:33.449Z,76.21
2017-01-12T12:37:33.441Z,75.93
2017-01-12T12:38:33.430Z,76.4
2017-01-12T12:39:33.421Z,76.88
2017-01-12T12:40:33.409Z,77.73
2017-01-12T12:41:33.405Z,77.45
2017-01-12T12:42:33.392Z,76.69
2017-01-12T12:43:33.386Z,78.02
2017-01-12T12:44:33.373Z,77.64
2017-01-12T12:45:33.365Z,78.21
2017-01-12T12:46:33.354Z,78.97
2017-01-12T12:47:33.347Z,77.83
2017-01-12T12:48:33.337Z,77.36
2017-01-12T12:49:33.325Z,76.69
2017-01-12T12:50:33.317Z,75.93
2017-01-12T12:51:33.306Z,77.07
2017-01-12T12:52:33.298Z,78.11
2017-01-12T12:53:33.288Z,77.92
2017-01-12T12:54:33.277Z,76.08
2017-01-12T12:55:33.269Z,77.51